Big Bear Station Historical Data
Daily Summary for June 4, 2019 Units:  English    Metric   Both
Next Day »
Daily Weekly Monthly Yearly Custom
  High: Low: Average:
Temperature: 77.9 °F 42.3 °F 59 °F
Dew Point: 49.9 °F 36.4 °F 42.6 °F
Humidity: 96% 26% 61%
Wind Speed: 7.3mph 0mph 1.5mph
Wind Gust: -999mph - -
Wind- - West
Pressure: 23.57 in 23.50 in -
Precipitation: 0 in    
Historical Graphs
 
 
Tabular Data for June 4, 2019
Time Temperature Dew Point Pressure Wind Wind Speed Wind Gust Humidity Rainfall Rate (Hourly)
00:15 50.4 °F 44.8 °F 23.51 in Calm   -999 mph 81% 0.00 in
00:30 50.2 °F 44.9 °F 23.50 in Calm   -999 mph 82% 0.00 in
00:45 49.6 °F 44.6 °F 23.51 in SSE 2.7 mph -999 mph 83% 0.00 in
01:00 49.1 °F 44.5 °F 23.50 in Calm   -999 mph 84% 0.00 in
01:15 48.6 °F 44.3 °F 23.50 in South 2.7 mph -999 mph 85% 0.00 in
01:31 48 °F 44 °F 23.50 in Calm   -999 mph 86% 0.00 in
01:46 47.3 °F 43.3 °F 23.50 in Calm   -999 mph 86% 0.00 in
02:01 46.9 °F 43.2 °F 23.50 in Calm   -999 mph 87% 0.00 in
02:16 46.6 °F 42.9 °F 23.50 in Calm   -999 mph 87% 0.00 in
02:32 45.9 °F 42.5 °F 23.50 in Calm   -999 mph 88% 0.00 in
02:47 45.1 °F 41.8 °F 23.50 in Calm   -999 mph 88% 0.00 in
03:02 45 °F 42.2 °F 23.50 in Calm   -999 mph 90% 0.00 in
03:17 44.8 °F 42.6 °F 23.50 in Calm   -999 mph 92% 0.00 in
03:32 44.2 °F 42.3 °F 23.51 in Calm   -999 mph 93% 0.00 in
03:48 43.9 °F 42 °F 23.51 in Calm   -999 mph 93% 0.00 in
04:03 43.7 °F 41.5 °F 23.51 in Calm   -999 mph 92% 0.00 in
04:18 43.5 °F 41.6 °F 23.51 in Calm   -999 mph 93% 0.00 in
04:33 43.3 °F 41.4 °F 23.51 in Calm   -999 mph 93% 0.00 in
04:48 43.2 °F 41.3 °F 23.51 in Calm   -999 mph 93% 0.00 in
05:04 42.8 °F 41.2 °F 23.51 in Calm   -999 mph 94% 0.00 in
05:19 42.6 °F 41.3 °F 23.51 in Calm   -999 mph 95% 0.00 in
05:34 42.4 °F 41.1 °F 23.51 in Calm   -999 mph 95% 0.00 in
05:49 42.4 °F 41.3 °F 23.52 in Calm   -999 mph 96% 0.00 in
06:04 42.3 °F 41.2 °F 23.52 in Calm   -999 mph 96% 0.00 in
06:20 42.4 °F 41.3 °F 23.53 in Calm   -999 mph 96% 0.00 in
06:35 42.4 °F 41.3 °F 23.53 in Calm   -999 mph 96% 0.00 in
06:50 42.8 °F 41.7 °F 23.53 in Calm   -999 mph 96% 0.00 in
07:05 43.3 °F 42 °F 23.54 in Calm   -999 mph 95% 0.00 in
07:21 43.9 °F 42.6 °F 23.54 in Calm   -999 mph 95% 0.00 in
07:36 45.1 °F 43.8 °F 23.54 in Calm   -999 mph 95% 0.00 in
07:51 46.4 °F 45.3 °F 23.54 in Calm   -999 mph 96% 0.00 in
08:06 48 °F 46.6 °F 23.54 in Calm   -999 mph 95% 0.00 in
08:21 49.5 °F 46.4 °F 23.54 in Calm   -999 mph 89% 0.00 in
08:37 51.4 °F 47.7 °F 23.54 in Calm   -999 mph 87% 0.00 in
08:52 53.1 °F 48.7 °F 23.55 in Calm   -999 mph 85% 0.00 in
09:07 56.3 °F 49.5 °F 23.55 in Calm   -999 mph 78% 0.00 in
09:22 60.3 °F 39.4 °F 23.55 in NNW 2.7 mph -999 mph 46% 0.00 in
09:37 63 °F 38.9 °F 23.55 in Calm   -999 mph 41% 0.00 in
09:53 64.8 °F 39.9 °F 23.55 in NNE 5.3 mph -999 mph 40% 0.00 in
10:08 65.5 °F 36.4 °F 23.55 in ESE 1.1 mph -999 mph 34% 0.00 in
10:23 66 °F 37.6 °F 23.55 in WNW 7.3 mph -999 mph 35% 0.00 in
10:38 67.1 °F 38.5 °F 23.56 in NNW 4.2 mph -999 mph 35% 0.00 in
10:53 67.6 °F 39.7 °F 23.56 in NE 2.2 mph -999 mph 36% 0.00 in
11:09 68.4 °F 40.4 °F 23.56 in North 4.2 mph -999 mph 36% 0.00 in
11:24 69.4 °F 38.3 °F 23.56 in NW 4.2 mph -999 mph 32% 0.00 in
11:40 70.3 °F 38.2 °F 23.56 in NE 4.7 mph -999 mph 31% 0.00 in
11:55 72.1 °F 41.4 °F 23.56 in NNW 4.2 mph -999 mph 33% 0.00 in
12:10 73.9 °F 38.7 °F 23.56 in NNW 5.3 mph -999 mph 28% 0.00 in
12:26 74.3 °F 40 °F 23.56 in NW 5.8 mph -999 mph 29% 0.00 in
12:41 74.7 °F 37.5 °F 23.56 in ESE 3.2 mph -999 mph 26% 0.00 in
12:56 76.3 °F 40.8 °F 23.56 in WNW 5.3 mph -999 mph 28% 0.00 in
13:11 74.8 °F 40.4 °F 23.55 in WNW 5.3 mph -999 mph 29% 0.00 in
13:26 74.3 °F 39.1 °F 23.55 in WNW 2.2 mph -999 mph 28% 0.00 in
13:42 73.2 °F 39 °F 23.55 in NW 2.7 mph -999 mph 29% 0.00 in
13:57 73.9 °F 41.4 °F 23.55 in NNW 2.7 mph -999 mph 31% 0.00 in
14:12 76.5 °F 41.9 °F 23.55 in NW 4.7 mph -999 mph 29% 0.00 in
14:27 75.7 °F 41.2 °F 23.54 in West 2.2 mph -999 mph 29% 0.00 in
14:42 75.7 °F 40.3 °F 23.54 in NNE 2.2 mph -999 mph 28% 0.00 in
14:58 76.3 °F 41.7 °F 23.54 in North 5.8 mph -999 mph 29% 0.00 in
15:13 75.9 °F 40.5 °F 23.54 in NNW 2.2 mph -999 mph 28% 0.00 in
15:28 75.9 °F 41.4 °F 23.53 in NW 3.7 mph -999 mph 29% 0.00 in
15:43 75 °F 44.7 °F 23.54 in WNW 4.7 mph -999 mph 34% 0.00 in
15:59 73.9 °F 42.2 °F 23.53 in North 4.7 mph -999 mph 32% 0.00 in
16:14 74.3 °F 42.5 °F 23.53 in SSW 3.2 mph -999 mph 32% 0.00 in
16:29 74.7 °F 43.7 °F 23.53 in NW 5.3 mph -999 mph 33% 0.00 in
16:44 77 °F 41.4 °F 23.52 in NNW 4.7 mph -999 mph 28% 0.00 in
17:00 77.9 °F 42.2 °F 23.53 in WNW 4.7 mph -999 mph 28% 0.00 in
17:15 76.6 °F 46.1 °F 23.52 in NNW 1.7 mph -999 mph 34% 0.00 in
17:30 77 °F 46.5 °F 23.52 in Calm   -999 mph 34% 0.00 in
17:45 75.2 °F 49.9 °F 23.52 in Calm   -999 mph 41% 0.00 in
18:01 74.1 °F 48.9 °F 23.52 in West 3.7 mph -999 mph 41% 0.00 in
18:17 70.5 °F 46.9 °F 23.52 in WNW 2.7 mph -999 mph 43% 0.00 in
18:32 68.9 °F 47.8 °F 23.53 in NW 4.2 mph -999 mph 47% 0.00 in
18:47 70 °F 47.1 °F 23.53 in West 1.1 mph -999 mph 44% 0.00 in
19:02 68.4 °F 45 °F 23.53 in Calm   -999 mph 43% 0.00 in
19:18 68 °F 45.3 °F 23.53 in Calm   -999 mph 44% 0.00 in
19:33 65.1 °F 43.8 °F 23.53 in Calm   -999 mph 46% 0.00 in
19:48 61.7 °F 43.9 °F 23.53 in Calm   -999 mph 52% 0.00 in
20:03 60.6 °F 43.4 °F 23.54 in Calm   -999 mph 53% 0.00 in
20:18 58.8 °F 44.5 °F 23.54 in Calm   -999 mph 59% 0.00 in
20:34 58.3 °F 43.1 °F 23.55 in Calm   -999 mph 57% 0.00 in
20:49 57.6 °F 42 °F 23.55 in Calm   -999 mph 56% 0.00 in
21:04 56.1 °F 42.4 °F 23.55 in Calm   -999 mph 60% 0.00 in
21:19 55.4 °F 43.4 °F 23.56 in Calm   -999 mph 64% 0.00 in
21:35 54.9 °F 43.4 °F 23.56 in Calm   -999 mph 65% 0.00 in
21:50 54.1 °F 42.6 °F 23.57 in Calm   -999 mph 65% 0.00 in
22:05 53.6 °F 43.3 °F 23.57 in Calm   -999 mph 68% 0.00 in
22:21 53.1 °F 43.6 °F 23.57 in Calm   -999 mph 70% 0.00 in
22:36 52.5 °F 42.6 °F 23.57 in Calm   -999 mph 69% 0.00 in
22:51 52.2 °F 42.7 °F 23.57 in Calm   -999 mph 70% 0.00 in
23:06 51.6 °F 42.5 °F 23.57 in Calm   -999 mph 71% 0.00 in
23:21 51.3 °F 41.8 °F 23.56 in Calm   -999 mph 70% 0.00 in
23:37 50.9 °F 41.5 °F 23.56 in Calm   -999 mph 70% 0.00 in
23:52 50.5 °F 42.2 °F 23.57 in Calm   -999 mph 73% 0.00 in
Big Bear CA Weather